createdAt,value
2022-09-21T00:00:53.159Z,10.77
2022-09-21T00:03:19.778Z,15.57
2022-09-21T00:05:46.392Z,15.27
2022-09-21T00:08:14.366Z,11.67
2022-09-21T00:10:41.051Z,6.53
2022-09-21T00:13:08.813Z,7.37
2022-09-21T00:15:35.488Z,6.00
2022-09-21T00:18:02.911Z,6.77
2022-09-21T00:20:29.546Z,5.23
2022-09-21T00:22:56.150Z,4.60
2022-09-21T00:25:22.726Z,6.03
2022-09-21T00:27:51.102Z,5.23
2022-09-21T00:30:18.348Z,5.60
2022-09-21T00:32:45.032Z,4.50
2022-09-21T00:35:11.621Z,4.67
2022-09-21T00:37:38.257Z,4.73
2022-09-21T00:40:05.241Z,4.57
2022-09-21T00:42:34.216Z,7.20
2022-09-21T00:45:01.076Z,4.30
2022-09-21T00:47:34.178Z,4.23
2022-09-21T00:50:04.194Z,4.13
2022-09-21T00:52:34.069Z,4.23
2022-09-21T00:55:22.139Z,5.80
2022-09-21T00:57:53.390Z,7.80
2022-09-21T01:00:20.040Z,4.10
2022-09-21T01:02:47.224Z,9.43
2022-09-21T01:05:14.144Z,4.30
2022-09-21T01:07:44.934Z,5.03
2022-09-21T01:10:18.445Z,4.77
2022-09-21T01:13:15.392Z,7.53
2022-09-21T01:15:58.387Z,4.10
2022-09-21T01:18:47.401Z,5.90
2022-09-21T01:21:21.351Z,4.50
2022-09-21T01:24:06.866Z,4.63
2022-09-21T01:26:42.753Z,5.20
2022-09-21T01:29:42.100Z,5.30
2022-09-21T01:32:18.232Z,4.67
2022-09-21T01:34:58.646Z,7.70
2022-09-21T01:37:43.549Z,3.93
2022-09-21T01:40:18.699Z,6.17
2022-09-21T01:42:47.940Z,5.93
2022-09-21T01:45:17.881Z,4.30
2022-09-21T01:47:47.571Z,4.43
2022-09-21T01:50:16.840Z,5.07
2022-09-21T01:52:50.989Z,4.40
2022-09-21T01:55:42.457Z,4.50
2022-09-21T01:58:19.274Z,5.40
2022-09-21T02:00:52.247Z,4.73
2022-09-21T02:03:36.403Z,6.07
2022-09-21T02:06:03.791Z,5.70
2022-09-21T02:08:34.890Z,5.50
2022-09-21T02:11:04.218Z,3.93
2022-09-21T02:13:34.918Z,6.17
2022-09-21T02:16:07.261Z,6.53
2022-09-21T02:18:48.480Z,8.87
2022-09-21T02:21:40.588Z,5.30
2022-09-21T02:24:14.449Z,6.67
2022-09-21T02:26:49.982Z,6.03
2022-09-21T02:29:22.825Z,4.60
2022-09-21T02:31:59.091Z,5.07
2022-09-21T02:34:36.245Z,4.80
2022-09-21T02:37:10.182Z,4.03
2022-09-21T02:39:53.616Z,4.30
2022-09-21T02:42:28.012Z,5.20
2022-09-21T02:45:09.511Z,4.47
2022-09-21T02:47:52.313Z,3.77
2022-09-21T02:50:28.718Z,3.73
2022-09-21T02:52:56.774Z,3.93
2022-09-21T02:55:24.691Z,5.23
2022-09-21T02:57:52.921Z,8.47
2022-09-21T03:00:19.700Z,4.50
2022-09-21T03:02:46.390Z,4.60
2022-09-21T03:05:14.765Z,5.27
2022-09-21T03:07:41.717Z,4.03
2022-09-21T03:10:09.236Z,5.03
2022-09-21T03:12:36.642Z,4.30
2022-09-21T03:15:04.575Z,4.93
2022-09-21T03:17:31.284Z,6.53
2022-09-21T03:19:57.857Z,5.93
2022-09-21T03:22:24.637Z,5.60
2022-09-21T03:24:53.233Z,4.97
2022-09-21T03:27:22.517Z,4.47
2022-09-21T03:29:49.645Z,4.57
2022-09-21T03:32:16.527Z,4.00
2022-09-21T03:34:43.522Z,8.37
2022-09-21T03:37:11.127Z,20.00
2022-09-21T03:39:37.813Z,20.10
2022-09-21T03:42:05.524Z,16.70
2022-09-21T03:44:32.133Z,15.07
2022-09-21T03:46:58.752Z,13.10
2022-09-21T03:49:25.998Z,9.90
2022-09-21T03:51:52.632Z,9.00
2022-09-21T03:54:19.369Z,5.67
2022-09-21T03:56:45.978Z,7.53
2022-09-21T03:59:14.351Z,9.63
2022-09-21T04:01:41.583Z,9.30
2022-09-21T04:04:08.340Z,9.43
2022-09-21T04:06:35.023Z,11.87
2022-09-21T04:09:03.454Z,7.60
2022-09-21T04:11:31.070Z,11.17
2022-09-21T04:13:57.749Z,9.10
2022-09-21T04:16:25.379Z,11.33
2022-09-21T04:18:52.119Z,18.80
2022-09-21T04:21:19.364Z,20.53
2022-09-21T04:23:46.550Z,18.67
2022-09-21T04:26:41.019Z,18.00
2022-09-21T04:29:07.602Z,17.60
2022-09-21T04:31:34.626Z,15.93
2022-09-21T04:34:01.186Z,15.10
2022-09-21T04:36:33.186Z,15.70
2022-09-21T04:39:02.447Z,10.87
2022-09-21T04:41:29.050Z,6.23
2022-09-21T04:43:55.638Z,10.93
2022-09-21T04:46:22.486Z,14.00
2022-09-21T04:48:49.814Z,12.67
2022-09-21T04:51:17.511Z,13.97
2022-09-21T04:53:44.710Z,10.23
2022-09-21T04:56:13.896Z,10.00
2022-09-21T04:58:40.924Z,6.30
2022-09-21T05:01:07.654Z,6.20
2022-09-21T05:03:34.660Z,5.13
2022-09-21T05:06:01.664Z,6.60
2022-09-21T05:08:47.261Z,6.47
2022-09-21T05:11:16.400Z,5.43
2022-09-21T05:13:43.004Z,10.73
2022-09-21T05:16:10.048Z,7.00
2022-09-21T05:18:36.845Z,10.60
2022-09-21T05:21:04.431Z,12.17
2022-09-21T05:23:31.827Z,12.87
2022-09-21T05:25:59.501Z,13.10
2022-09-21T05:28:26.764Z,14.07
2022-09-21T05:31:18.795Z,10.70
2022-09-21T05:34:06.131Z,8.83
2022-09-21T05:36:47.806Z,8.80
2022-09-21T05:39:14.619Z,9.80
2022-09-21T05:41:41.567Z,12.63
2022-09-21T05:44:12.902Z,6.83
2022-09-21T05:46:52.663Z,5.70
2022-09-21T05:49:39.624Z,7.03
2022-09-21T05:52:28.865Z,7.30
2022-09-21T05:55:10.698Z,11.83
2022-09-21T05:58:04.825Z,7.53
2022-09-21T06:00:43.847Z,8.57
2022-09-21T06:03:35.921Z,8.20
2022-09-21T06:06:02.877Z,7.10
2022-09-21T06:08:29.446Z,7.77
2022-09-21T06:10:56.314Z,11.80
2022-09-21T06:13:23.285Z,9.00
2022-09-21T06:15:49.914Z,8.77
2022-09-21T06:18:18.195Z,8.30
2022-09-21T06:20:45.453Z,10.93
2022-09-21T06:23:13.523Z,8.40
2022-09-21T06:25:40.305Z,10.10
2022-09-21T06:28:11.585Z,9.50
2022-09-21T06:30:40.749Z,10.47
2022-09-21T06:33:07.874Z,13.70
2022-09-21T06:35:36.105Z,10.97
2022-09-21T06:38:06.382Z,14.87
2022-09-21T06:40:36.048Z,16.80
2022-09-21T06:43:04.228Z,12.03
2022-09-21T06:45:31.139Z,10.33
2022-09-21T06:47:58.146Z,9.70
2022-09-21T06:50:25.069Z,11.80
2022-09-21T06:52:51.823Z,11.50
2022-09-21T06:55:18.540Z,10.87
2022-09-21T06:57:45.263Z,9.37
2022-09-21T07:00:13.008Z,12.30
2022-09-21T07:02:45.628Z,13.47
2022-09-21T07:05:12.814Z,12.70
2022-09-21T07:07:40.229Z,12.73
2022-09-21T07:10:12.142Z,14.10
2022-09-21T07:12:41.585Z,12.80
2022-09-21T07:15:10.206Z,13.90
2022-09-21T07:17:38.782Z,13.20
2022-09-21T07:20:06.482Z,13.03
2022-09-21T07:22:33.746Z,12.27
2022-09-21T07:25:00.342Z,13.20
2022-09-21T07:27:29.214Z,12.60
2022-09-21T07:29:55.845Z,13.70
2022-09-21T07:32:22.566Z,12.53
2022-09-21T07:34:49.146Z,14.30
2022-09-21T07:37:16.167Z,17.37
2022-09-21T07:39:42.813Z,14.53
2022-09-21T07:42:09.402Z,10.70
2022-09-21T07:44:36.033Z,15.23
2022-09-21T07:47:03.282Z,13.10
2022-09-21T07:49:29.933Z,13.43
2022-09-21T07:52:01.503Z,13.73
2022-09-21T07:54:30.433Z,14.27
2022-09-21T07:57:15.769Z,14.60
2022-09-21T07:59:42.364Z,14.47
2022-09-21T08:02:09.105Z,11.43
2022-09-21T08:04:35.957Z,11.30
2022-09-21T08:07:02.579Z,9.23
2022-09-21T08:09:29.200Z,9.30
2022-09-21T08:11:56.151Z,9.50
2022-09-21T08:14:26.615Z,11.13
2022-09-21T08:16:53.607Z,11.23
2022-09-21T08:19:20.840Z,9.87
2022-09-21T08:21:56.266Z,10.50
2022-09-21T08:24:26.468Z,14.43
2022-09-21T08:26:53.278Z,10.40
2022-09-21T08:29:20.009Z,11.83
2022-09-21T08:31:46.803Z,10.77
2022-09-21T08:34:14.075Z,10.10
2022-09-21T08:36:41.009Z,10.97
2022-09-21T08:39:10.904Z,11.70
2022-09-21T08:41:59.270Z,11.77
2022-09-21T08:44:39.989Z,11.90
2022-09-21T08:47:17.206Z,17.37
2022-09-21T08:49:51.224Z,13.23
2022-09-21T08:52:20.337Z,14.50
2022-09-21T08:55:01.585Z,13.23
2022-09-21T08:57:33.779Z,15.20
2022-09-21T09:00:02.153Z,14.13
2022-09-21T09:03:00.811Z,13.87
2022-09-21T09:06:08.103Z,10.57
2022-09-21T09:09:03.634Z,11.03
2022-09-21T09:12:01.093Z,10.13
2022-09-21T09:15:03.233Z,10.47
2022-09-21T09:17:36.265Z,7.50
2022-09-21T09:20:19.670Z,13.73
2022-09-21T09:23:11.003Z,9.87
2022-09-21T09:25:42.971Z,6.40
2022-09-21T09:28:18.632Z,8.30
2022-09-21T09:30:45.562Z,5.60
2022-09-21T09:33:26.517Z,6.00
2022-09-21T09:36:00.341Z,7.37
2022-09-21T09:38:46.943Z,3.43
2022-09-21T09:41:22.892Z,6.53
2022-09-21T09:43:56.049Z,3.90
2022-09-21T09:46:44.483Z,4.60
2022-09-21T09:49:33.714Z,6.33
2022-09-21T09:52:00.923Z,5.97
2022-09-21T09:54:29.685Z,5.93
2022-09-21T09:56:56.339Z,3.63
2022-09-21T09:59:43.160Z,5.60
2022-09-21T10:02:27.144Z,7.50
2022-09-21T10:05:08.884Z,4.30
2022-09-21T10:07:40.192Z,3.53
2022-09-21T10:10:33.742Z,4.07
2022-09-21T10:13:38.753Z,11.70
2022-09-21T10:16:21.498Z,8.27
2022-09-21T10:18:50.570Z,3.73
2022-09-21T10:21:37.740Z,2.80
2022-09-21T10:24:06.422Z,2.20
2022-09-21T10:26:38.585Z,4.53
2022-09-21T10:29:23.435Z,2.50
2022-09-21T10:32:14.849Z,2.40
2022-09-21T10:35:01.117Z,3.43
2022-09-21T10:37:34.793Z,3.63
2022-09-21T10:40:01.723Z,3.43
2022-09-21T10:42:35.073Z,4.87
2022-09-21T10:45:14.679Z,4.40
2022-09-21T10:47:45.301Z,2.47
2022-09-21T10:50:40.113Z,5.10
2022-09-21T10:53:09.469Z,3.80
2022-09-21T10:55:52.732Z,2.60
2022-09-21T10:58:29.732Z,2.10
2022-09-21T11:01:09.224Z,2.70
2022-09-21T11:03:35.898Z,1.60
2022-09-21T11:06:11.643Z,2.33
2022-09-21T11:08:49.111Z,5.57
2022-09-21T11:11:27.848Z,3.43
2022-09-21T11:14:16.944Z,2.17
2022-09-21T11:16:57.616Z,3.20
2022-09-21T11:19:47.945Z,5.00
2022-09-21T11:22:34.961Z,1.63
2022-09-21T11:25:32.292Z,4.43
2022-09-21T11:28:22.918Z,4.83
2022-09-21T11:31:22.154Z,1.90
2022-09-21T11:34:05.715Z,2.10
2022-09-21T11:37:10.955Z,2.67
2022-09-21T11:40:25.428Z,3.53
2022-09-21T11:43:08.643Z,2.00
2022-09-21T11:45:58.757Z,3.10
2022-09-21T11:49:02.637Z,2.57
2022-09-21T11:51:42.278Z,6.10
2022-09-21T11:54:27.147Z,3.77
2022-09-21T11:57:19.064Z,2.83
2022-09-21T12:00:17.924Z,2.80
2022-09-21T12:03:06.191Z,1.10
2022-09-21T12:05:46.932Z,4.63
2022-09-21T12:08:19.442Z,2.50
2022-09-21T12:11:14.468Z,1.73
2022-09-21T12:13:49.203Z,1.60
2022-09-21T12:16:32.262Z,3.03
2022-09-21T12:19:05.074Z,0.93
2022-09-21T12:21:35.670Z,1.30
2022-09-21T12:24:22.641Z,1.23
2022-09-21T12:26:59.518Z,1.57
2022-09-21T12:29:37.179Z,3.57
2022-09-21T12:32:25.531Z,2.80
2022-09-21T12:34:57.294Z,1.23
2022-09-21T12:37:31.718Z,1.40
2022-09-21T12:40:27.998Z,1.73
2022-09-21T12:43:23.949Z,1.30
2022-09-21T12:46:02.600Z,4.87
2022-09-21T12:48:39.054Z,0.70
2022-09-21T12:51:13.982Z,1.90
2022-09-21T12:53:49.881Z,2.13
2022-09-21T12:56:56.047Z,3.70
2022-09-21T12:59:37.050Z,2.60
2022-09-21T13:02:33.482Z,3.20
2022-09-21T13:05:36.607Z,1.27
2022-09-21T13:08:14.259Z,1.13
2022-09-21T13:10:43.903Z,1.40
2022-09-21T13:13:23.716Z,1.47
2022-09-21T13:15:51.179Z,4.23
2022-09-21T13:18:23.482Z,3.60
2022-09-21T13:20:52.020Z,1.93
2022-09-21T13:23:42.242Z,1.10
2022-09-21T13:26:12.115Z,1.13
2022-09-21T13:29:02.489Z,1.20
2022-09-21T13:31:42.061Z,5.20
2022-09-21T13:34:29.076Z,1.50
2022-09-21T13:37:19.860Z,0.70
2022-09-21T13:40:16.206Z,1.57
2022-09-21T13:42:49.209Z,1.10
2022-09-21T13:45:17.765Z,1.47
2022-09-21T13:47:47.247Z,3.83
2022-09-21T13:50:28.528Z,1.00
2022-09-21T13:53:32.744Z,0.93
2022-09-21T13:56:17.283Z,2.90
2022-09-21T13:58:47.427Z,0.97
2022-09-21T14:01:45.330Z,0.70
2022-09-21T14:04:30.087Z,1.10
2022-09-21T14:06:58.070Z,0.97
2022-09-21T14:09:28.286Z,1.10
2022-09-21T14:12:06.350Z,1.93
2022-09-21T14:14:38.254Z,2.53
2022-09-21T14:17:26.111Z,5.70
2022-09-21T14:19:52.652Z,0.87
2022-09-21T14:22:20.105Z,0.90
2022-09-21T14:24:51.044Z,1.00
2022-09-21T14:27:46.235Z,1.03
2022-09-21T14:30:25.744Z,1.47
2022-09-21T14:33:02.005Z,3.27
2022-09-21T14:35:37.676Z,0.70
2022-09-21T14:38:19.483Z,1.20
2022-09-21T14:40:51.161Z,2.20
2022-09-21T14:43:30.008Z,0.90
2022-09-21T14:46:21.610Z,3.10
2022-09-21T14:49:14.059Z,0.93
2022-09-21T14:52:12.954Z,1.80
2022-09-21T14:54:51.624Z,3.10
2022-09-21T14:57:44.189Z,0.70
2022-09-21T15:00:26.375Z,0.97
2022-09-21T15:03:25.230Z,0.57
2022-09-21T15:06:35.851Z,1.37
2022-09-21T15:10:17.831Z,3.70
2022-09-21T15:12:50.495Z,1.33
2022-09-21T15:15:29.212Z,3.00
2022-09-21T15:18:01.765Z,1.27
2022-09-21T15:20:32.001Z,0.83
2022-09-21T15:23:00.208Z,1.53
2022-09-21T15:25:30.942Z,1.10
2022-09-21T15:27:58.043Z,0.87
2022-09-21T15:30:33.085Z,1.70
2022-09-21T15:33:01.603Z,1.57
2022-09-21T15:35:32.422Z,1.70
2022-09-21T15:38:00.784Z,0.50
2022-09-21T15:40:45.841Z,1.43
2022-09-21T15:43:13.845Z,2.33
2022-09-21T15:46:07.381Z,0.90
2022-09-21T15:48:42.377Z,1.90
2022-09-21T15:51:23.056Z,0.80
2022-09-21T15:53:53.203Z,1.20
2022-09-21T15:56:25.599Z,1.50
2022-09-21T15:59:08.826Z,0.97
2022-09-21T16:01:45.115Z,2.37
2022-09-21T16:04:22.024Z,3.17
2022-09-21T16:06:59.338Z,1.83
2022-09-21T16:09:25.933Z,2.40
2022-09-21T16:11:53.475Z,1.37
2022-09-21T16:14:39.031Z,1.50
2022-09-21T16:17:19.107Z,1.10
2022-09-21T16:19:52.451Z,2.30
2022-09-21T16:22:24.500Z,1.83
2022-09-21T16:24:55.291Z,1.20
2022-09-21T16:27:31.737Z,1.60
2022-09-21T16:30:00.096Z,1.77
2022-09-21T16:32:34.302Z,3.83
2022-09-21T16:35:31.525Z,2.57
2022-09-21T16:37:58.892Z,2.33
2022-09-21T16:40:26.893Z,2.57
2022-09-21T16:42:54.117Z,1.57
2022-09-21T16:45:28.393Z,2.40
2022-09-21T16:47:56.154Z,1.03
2022-09-21T16:50:24.441Z,1.23
2022-09-21T16:52:52.333Z,1.60
2022-09-21T16:55:26.859Z,1.10
2022-09-21T16:57:55.839Z,1.30
2022-09-21T17:00:22.662Z,4.10
2022-09-21T17:02:49.652Z,3.63
2022-09-21T17:05:19.197Z,5.87
2022-09-21T17:07:56.855Z,4.30
2022-09-21T17:10:29.099Z,2.17
2022-09-21T17:12:56.744Z,2.30
2022-09-21T17:15:24.291Z,2.60
2022-09-21T17:17:51.284Z,3.07
2022-09-21T17:20:23.496Z,3.20
2022-09-21T17:22:50.106Z,2.60
2022-09-21T17:25:16.672Z,3.50
2022-09-21T17:27:45.819Z,3.47
2022-09-21T17:30:14.077Z,2.40
2022-09-21T17:32:42.597Z,4.57
2022-09-21T17:35:22.474Z,4.87
2022-09-21T17:37:49.058Z,6.30
2022-09-21T17:40:16.056Z,5.67
2022-09-21T17:42:48.505Z,6.27
2022-09-21T17:45:38.436Z,6.30
2022-09-21T17:48:18.525Z,4.40
2022-09-21T17:50:45.500Z,4.57
2022-09-21T17:53:31.161Z,3.90
2022-09-21T17:55:59.623Z,5.10
2022-09-21T17:58:35.290Z,5.80
2022-09-21T18:01:12.556Z,4.43
2022-09-21T18:03:41.131Z,9.27
2022-09-21T18:06:09.382Z,5.60
2022-09-21T18:08:37.572Z,5.03
2022-09-21T18:11:41.224Z,6.90
2022-09-21T18:14:24.393Z,5.80
2022-09-21T18:17:15.197Z,7.83
2022-09-21T18:19:49.460Z,8.93
2022-09-21T18:22:41.588Z,5.73
2022-09-21T18:25:26.317Z,5.27
2022-09-21T18:27:53.441Z,7.13
2022-09-21T18:30:20.059Z,5.37
2022-09-21T18:33:09.664Z,10.00
2022-09-21T18:35:59.068Z,4.97
2022-09-21T18:38:37.128Z,5.30
2022-09-21T18:41:32.265Z,4.33
2022-09-21T18:44:17.921Z,6.10
2022-09-21T18:47:06.147Z,4.50
2022-09-21T18:49:56.448Z,2.33
2022-09-21T18:52:29.099Z,5.67
2022-09-21T18:54:55.901Z,4.73
2022-09-21T18:57:23.349Z,5.10
2022-09-21T18:59:50.364Z,3.53
2022-09-21T19:02:20.263Z,2.20
2022-09-21T19:04:47.630Z,3.30
2022-09-21T19:07:39.962Z,3.53
2022-09-21T19:10:18.455Z,2.73
2022-09-21T19:12:47.834Z,5.37
2022-09-21T19:15:58.661Z,3.30
2022-09-21T19:18:32.054Z,2.30
2022-09-21T19:21:27.255Z,2.87
2022-09-21T19:24:13.257Z,11.43
2022-09-21T19:27:09.252Z,9.17
2022-09-21T19:29:44.811Z,11.00
2022-09-21T19:32:23.597Z,3.10
2022-09-21T19:34:51.459Z,4.43
2022-09-21T19:37:18.177Z,5.73
2022-09-21T19:39:44.887Z,5.87
2022-09-21T19:42:35.877Z,5.83
2022-09-21T19:45:11.782Z,6.80
2022-09-21T19:47:52.302Z,4.50
2022-09-21T19:50:41.275Z,3.50
2022-09-21T19:53:29.220Z,3.93
2022-09-21T19:56:17.422Z,2.50
2022-09-21T19:59:02.909Z,3.60
2022-09-21T20:01:31.187Z,6.80
2022-09-21T20:03:58.153Z,6.43
2022-09-21T20:06:47.709Z,3.50
2022-09-21T20:09:28.972Z,4.50
2022-09-21T20:12:01.083Z,5.77
2022-09-21T20:14:46.129Z,3.20
2022-09-21T20:17:19.980Z,3.53
2022-09-21T20:20:15.356Z,3.93
2022-09-21T20:22:42.237Z,3.63
2022-09-21T20:25:09.257Z,3.57
2022-09-21T20:27:56.051Z,2.77
2022-09-21T20:30:26.393Z,4.87
2022-09-21T20:32:59.879Z,3.90
2022-09-21T20:35:29.439Z,2.13
2022-09-21T20:38:01.255Z,5.43
2022-09-21T20:40:29.506Z,2.87
2022-09-21T20:42:57.312Z,3.87
2022-09-21T20:45:24.636Z,2.60
2022-09-21T20:47:52.410Z,6.53
2022-09-21T20:50:19.532Z,4.03
2022-09-21T20:52:46.147Z,4.07
2022-09-21T20:55:17.495Z,2.73
2022-09-21T20:57:44.657Z,3.67
2022-09-21T21:00:14.269Z,3.00
2022-09-21T21:02:41.265Z,15.10
2022-09-21T21:05:09.541Z,14.30
2022-09-21T21:07:36.354Z,13.57
2022-09-21T21:10:03.833Z,7.83
2022-09-21T21:12:30.522Z,5.93
2022-09-21T21:14:58.991Z,4.80
2022-09-21T21:17:26.186Z,4.33
2022-09-21T21:19:53.246Z,3.17
2022-09-21T21:22:19.833Z,4.13
2022-09-21T21:24:46.517Z,3.70
2022-09-21T21:27:18.159Z,3.57
2022-09-21T21:29:46.215Z,3.77
2022-09-21T21:32:14.444Z,4.10
2022-09-21T21:34:41.314Z,3.80
2022-09-21T21:37:08.728Z,2.60
2022-09-21T21:39:35.616Z,4.03
2022-09-21T21:42:02.465Z,3.27
2022-09-21T21:44:29.398Z,2.77
2022-09-21T21:47:02.798Z,3.57
2022-09-21T21:49:41.971Z,3.90
2022-09-21T21:52:09.303Z,3.30
2022-09-21T21:54:36.417Z,4.30
2022-09-21T21:57:03.421Z,3.50
2022-09-21T21:59:30.645Z,3.40
2022-09-21T22:01:57.365Z,4.03
2022-09-21T22:04:27.652Z,3.70
2022-09-21T22:06:54.608Z,3.33
2022-09-21T22:09:22.058Z,2.70
2022-09-21T22:11:48.907Z,3.90
2022-09-21T22:14:15.528Z,3.53
2022-09-21T22:16:42.242Z,2.70
2022-09-21T22:19:09.249Z,5.60
2022-09-21T22:21:42.143Z,4.30
2022-09-21T22:24:09.633Z,4.83
2022-09-21T22:26:41.485Z,3.40
2022-09-21T22:29:10.738Z,3.57
2022-09-21T22:31:42.736Z,5.77
2022-09-21T22:34:10.242Z,2.90
2022-09-21T22:36:37.965Z,3.40
2022-09-21T22:39:06.920Z,4.80
2022-09-21T22:41:38.600Z,3.27
2022-09-21T22:44:05.969Z,4.80
2022-09-21T22:46:33.346Z,4.90
2022-09-21T22:49:00.711Z,2.97
2022-09-21T22:51:28.702Z,3.17
2022-09-21T22:53:55.764Z,2.90
2022-09-21T22:56:27.858Z,2.90
2022-09-21T22:58:57.356Z,3.43
2022-09-21T23:01:29.604Z,4.03
2022-09-21T23:04:05.596Z,7.50
2022-09-21T23:06:34.476Z,2.60
2022-09-21T23:09:03.280Z,3.00
2022-09-21T23:11:38.731Z,3.50
2022-09-21T23:14:05.922Z,4.27
2022-09-21T23:16:33.064Z,2.93
2022-09-21T23:19:00.085Z,3.40
2022-09-21T23:21:28.818Z,3.77
2022-09-21T23:23:59.646Z,4.33
2022-09-21T23:26:27.986Z,3.80
2022-09-21T23:29:08.163Z,3.83
2022-09-21T23:31:35.460Z,5.20
2022-09-21T23:34:07.570Z,3.70
2022-09-21T23:36:35.687Z,2.97
2022-09-21T23:39:04.238Z,4.93
2022-09-21T23:41:35.051Z,3.47
2022-09-21T23:44:02.621Z,3.90
2022-09-21T23:46:32.394Z,3.67
2022-09-21T23:48:59.898Z,3.90
2022-09-21T23:51:27.045Z,3.20
2022-09-21T23:53:53.919Z,3.20
2022-09-21T23:56:22.514Z,7.63
2022-09-21T23:58:49.740Z,6.63
